Terminal Aerodrome Forecast
Issued by NWS

Home | Current Version | Previous Version | Text Only | Print | Product List | Glossary On
Versions: 1 2 3 4 5 6 7 8 9 10 11 12 13 14 15 16 17 18 19 20 21 22 23 24 25 26 27 28 29 30
759
FTAK31 PANC 100536
TAFADU
TAF
PADU 100536Z 1006/1106 29010KT P6SM -SHSN BKN020 OVC030
     FM100900 33008KT P6SM VCSH BKN025 OVC050
     FM101400 VRB05KT P6SM SCT050 BKN080
     FM101800 34004KT P6SM VCSH SCT025 BKN040
     FM110000 12008KT P6SM -RASN BKN025 OVC040
      AMD LTD TO CLD VIS AND WX TIL 101600=

USA.gov is the U.S. government's official web portal to all federal, state and local government web resources and services.